Maben, Mississippi
Current Conditions -  °F | °C
As of 11:55 AM on Sunday 21 Dec 2014 (Local Time) from KSTF Reporting Station
Broken Clouds Broken Clouds  
Wind Chill: 48°   Ceiling: 2700
Heat Index: 48°   Visibility: 10mi
Dew Point: 41°   Wind: 0mph
Humidity: 76%   Direction: NA
Pressure: 30.13"   Gusts: NA
Location:  33.56°N, 89.08°W
Report Text: KSTF 211755Z AUTO 00000KT 10SM BKN027 09/05 A3013 RMK AO2
Loading
Personal Weather Stations






























Interactive Weather Map New forecast layout! Learn more

10-Day Weather Forecast

Advertisements
Track Severe Weather on mobile